sensor_id;sensor_type;location;lat;lon;timestamp;pressure;altitude;pressure_sealevel;temperature;humidity
62164;BME280;48149;51.132;7.178;2023-04-26T00:01:28;98854.03;;;21.49;28.63
62164;BME280;48149;51.132;7.178;2023-04-26T00:03:54;98853.09;;;21.63;28.65
62164;BME280;48149;51.132;7.178;2023-04-26T00:06:20;98849.97;;;21.90;28.24
62164;BME280;48149;51.132;7.178;2023-04-26T00:08:45;98848.53;;;21.69;28.43
62164;BME280;48149;51.132;7.178;2023-04-26T00:11:10;98856.94;;;21.03;28.70
62164;BME280;48149;51.132;7.178;2023-04-26T00:13:35;98857.97;;;21.17;29.32
62164;BME280;48149;51.132;7.178;2023-04-26T00:16:02;98854.53;;;21.51;28.58
62164;BME280;48149;51.132;7.178;2023-04-26T00:18:27;98851.69;;;21.42;28.80
62164;BME280;48149;51.132;7.178;2023-04-26T00:20:53;98850.28;;;21.50;28.63
62164;BME280;48149;51.132;7.178;2023-04-26T00:23:18;98850.50;;;20.60;29.11
62164;BME280;48149;51.132;7.178;2023-04-26T00:25:43;98846.09;;;20.90;29.42
62164;BME280;48149;51.132;7.178;2023-04-26T00:28:08;98843.94;;;21.46;28.96
62164;BME280;48149;51.132;7.178;2023-04-26T00:30:34;98840.72;;;21.49;28.83
62164;BME280;48149;51.132;7.178;2023-04-26T00:33:01;98843.19;;;21.35;28.75
62164;BME280;48149;51.132;7.178;2023-04-26T00:35:27;98837.59;;;21.37;28.68
62164;BME280;48149;51.132;7.178;2023-04-26T00:37:52;98837.44;;;21.57;28.73
62164;BME280;48149;51.132;7.178;2023-04-26T00:40:17;98837.00;;;21.45;28.60
62164;BME280;48149;51.132;7.178;2023-04-26T00:42:44;98842.25;;;21.55;28.82
62164;BME280;48149;51.132;7.178;2023-04-26T00:45:09;98844.84;;;21.26;28.99
62164;BME280;48149;51.132;7.178;2023-04-26T00:47:35;98839.78;;;21.63;28.54
62164;BME280;48149;51.132;7.178;2023-04-26T00:50:00;98840.63;;;21.88;28.33
62164;BME280;48149;51.132;7.178;2023-04-26T00:52:26;98835.84;;;21.56;28.32
62164;BME280;48149;51.132;7.178;2023-04-26T00:54:52;98834.09;;;21.41;28.92
62164;BME280;48149;51.132;7.178;2023-04-26T00:57:17;98832.28;;;20.88;28.98
62164;BME280;48149;51.132;7.178;2023-04-26T00:59:42;98829.94;;;20.76;29.41
62164;BME280;48149;51.132;7.178;2023-04-26T01:02:09;98826.88;;;20.44;29.83
62164;BME280;48149;51.132;7.178;2023-04-26T01:04:34;98834.06;;;20.48;30.03
62164;BME280;48149;51.132;7.178;2023-04-26T01:07:01;98831.41;;;20.43;30.08
62164;BME280;48149;51.132;7.178;2023-04-26T01:09:26;98833.66;;;21.29;29.15
62164;BME280;48149;51.132;7.178;2023-04-26T01:11:52;98834.63;;;20.94;29.53
62164;BME280;48149;51.132;7.178;2023-04-26T01:14:20;98837.00;;;21.01;29.36
62164;BME280;48149;51.132;7.178;2023-04-26T01:16:45;98836.44;;;21.48;28.82
62164;BME280;48149;51.132;7.178;2023-04-26T01:19:11;98829.94;;;21.30;29.25
62164;BME280;48149;51.132;7.178;2023-04-26T01:21:37;98839.09;;;21.48;28.85
62164;BME280;48149;51.132;7.178;2023-04-26T01:24:03;98841.81;;;20.24;29.76
62164;BME280;48149;51.132;7.178;2023-04-26T01:26:28;98839.75;;;19.91;30.25
62164;BME280;48149;51.132;7.178;2023-04-26T01:28:54;98841.03;;;20.19;30.43
62164;BME280;48149;51.132;7.178;2023-04-26T01:31:19;98847.69;;;19.36;30.88
62164;BME280;48149;51.132;7.178;2023-04-26T01:33:45;98854.34;;;20.04;30.76
62164;BME280;48149;51.132;7.178;2023-04-26T01:36:10;98847.94;;;20.20;30.30
62164;BME280;48149;51.132;7.178;2023-04-26T01:38:36;98842.69;;;19.75;30.70
62164;BME280;48149;51.132;7.178;2023-04-26T01:41:01;98838.41;;;19.94;30.72
62164;BME280;48149;51.132;7.178;2023-04-26T01:43:26;98838.66;;;20.02;30.96
62164;BME280;48149;51.132;7.178;2023-04-26T01:45:52;98840.78;;;20.15;30.74
62164;BME280;48149;51.132;7.178;2023-04-26T01:48:17;98842.19;;;20.72;30.49
62164;BME280;48149;51.132;7.178;2023-04-26T01:50:42;98848.75;;;20.95;29.83
62164;BME280;48149;51.132;7.178;2023-04-26T01:53:07;98842.53;;;21.14;29.37
62164;BME280;48149;51.132;7.178;2023-04-26T01:55:33;98843.56;;;21.23;29.26
62164;BME280;48149;51.132;7.178;2023-04-26T01:57:58;98837.34;;;20.84;29.52
62164;BME280;48149;51.132;7.178;2023-04-26T02:00:23;98840.41;;;20.57;29.94
62164;BME280;48149;51.132;7.178;2023-04-26T02:02:48;98832.25;;;20.29;29.87
62164;BME280;48149;51.132;7.178;2023-04-26T02:05:13;98833.34;;;20.12;30.23
62164;BME280;48149;51.132;7.178;2023-04-26T02:07:39;98833.97;;;20.73;30.08
62164;BME280;48149;51.132;7.178;2023-04-26T02:10:04;98837.97;;;20.66;30.21
62164;BME280;48149;51.132;7.178;2023-04-26T02:12:30;98834.38;;;20.32;30.34
62164;BME280;48149;51.132;7.178;2023-04-26T02:14:56;98839.19;;;19.99;30.50
62164;BME280;48149;51.132;7.178;2023-04-26T02:17:21;98838.09;;;20.36;30.20
62164;BME280;48149;51.132;7.178;2023-04-26T02:19:46;98840.47;;;20.96;29.48
62164;BME280;48149;51.132;7.178;2023-04-26T02:22:12;98834.63;;;20.94;29.41
62164;BME280;48149;51.132;7.178;2023-04-26T02:24:37;98838.44;;;20.78;29.97
62164;BME280;48149;51.132;7.178;2023-04-26T02:27:02;98830.97;;;20.80;29.22
62164;BME280;48149;51.132;7.178;2023-04-26T02:29:29;98838.09;;;20.90;29.54
62164;BME280;48149;51.132;7.178;2023-04-26T02:31:54;98840.25;;;20.88;29.49
62164;BME280;48149;51.132;7.178;2023-04-26T02:34:19;98844.69;;;21.02;29.33
62164;BME280;48149;51.132;7.178;2023-04-26T02:36:45;98844.34;;;20.70;29.63
62164;BME280;48149;51.132;7.178;2023-04-26T02:39:10;98841.72;;;20.60;29.94
62164;BME280;48149;51.132;7.178;2023-04-26T02:41:36;98833.81;;;20.45;30.09
62164;BME280;48149;51.132;7.178;2023-04-26T02:44:01;98832.25;;;20.18;30.26
62164;BME280;48149;51.132;7.178;2023-04-26T02:46:26;98832.53;;;20.17;30.48
62164;BME280;48149;51.132;7.178;2023-04-26T02:48:51;98834.84;;;20.49;30.15
62164;BME280;48149;51.132;7.178;2023-04-26T02:51:17;98829.06;;;20.32;30.06
62164;BME280;48149;51.132;7.178;2023-04-26T02:53:42;98827.44;;;20.20;30.22
62164;BME280;48149;51.132;7.178;2023-04-26T02:56:07;98828.59;;;20.04;30.46
62164;BME280;48149;51.132;7.178;2023-04-26T02:58:32;98825.91;;;19.99;30.38
62164;BME280;48149;51.132;7.178;2023-04-26T03:00:57;98825.88;;;20.19;30.27
62164;BME280;48149;51.132;7.178;2023-04-26T03:03:23;98828.59;;;19.89;30.32
62164;BME280;48149;51.132;7.178;2023-04-26T03:05:49;98823.81;;;19.81;30.77
62164;BME280;48149;51.132;7.178;2023-04-26T03:08:14;98821.91;;;20.12;30.23
62164;BME280;48149;51.132;7.178;2023-04-26T03:10:39;98819.81;;;19.89;30.48
62164;BME280;48149;51.132;7.178;2023-04-26T03:13:04;98821.72;;;19.63;30.62
62164;BME280;48149;51.132;7.178;2023-04-26T03:15:30;98827.53;;;19.55;31.12
62164;BME280;48149;51.132;7.178;2023-04-26T03:17:55;98823.53;;;19.27;31.61
62164;BME280;48149;51.132;7.178;2023-04-26T03:20:22;98824.31;;;19.23;31.76
62164;BME280;48149;51.132;7.178;2023-04-26T03:22:47;98819.06;;;19.43;31.48
62164;BME280;48149;51.132;7.178;2023-04-26T03:25:12;98826.75;;;19.59;31.08
62164;BME280;48149;51.132;7.178;2023-04-26T03:27:39;98816.41;;;19.53;31.32
62164;BME280;48149;51.132;7.178;2023-04-26T03:30:04;98814.69;;;18.86;31.79
62164;BME280;48149;51.132;7.178;2023-04-26T03:32:30;98816.47;;;18.08;33.34
62164;BME280;48149;51.132;7.178;2023-04-26T03:34:55;98819.22;;;19.01;32.30
62164;BME280;48149;51.132;7.178;2023-04-26T03:37:21;98817.94;;;19.08;31.77
62164;BME280;48149;51.132;7.178;2023-04-26T03:39:46;98811.03;;;17.83;32.83
62164;BME280;48149;51.132;7.178;2023-04-26T03:42:11;98815.13;;;17.37;34.41
62164;BME280;48149;51.132;7.178;2023-04-26T03:44:36;98815.75;;;17.81;33.71
62164;BME280;48149;51.132;7.178;2023-04-26T03:47:02;98820.69;;;18.04;33.71
62164;BME280;48149;51.132;7.178;2023-04-26T03:49:29;98817.03;;;18.62;33.03
62164;BME280;48149;51.132;7.178;2023-04-26T03:51:54;98817.28;;;18.66;32.90
62164;BME280;48149;51.132;7.178;2023-04-26T03:54:20;98810.56;;;18.43;33.07
62164;BME280;48149;51.132;7.178;2023-04-26T03:56:45;98817.28;;;18.66;32.90
62164;BME280;48149;51.132;7.178;2023-04-26T03:59:11;98811.03;;;19.33;32.35
62164;BME280;48149;51.132;7.178;2023-04-26T04:01:36;98815.66;;;18.55;32.91
62164;BME280;48149;51.132;7.178;2023-04-26T04:04:01;98818.97;;;20.08;30.89
62164;BME280;48149;51.132;7.178;2023-04-26T04:06:27;98812.16;;;19.47;31.60
62164;BME280;48149;51.132;7.178;2023-04-26T04:08:52;98811.63;;;19.40;31.86
62164;BME280;48149;51.132;7.178;2023-04-26T04:11:17;98823.56;;;19.42;31.89
62164;BME280;48149;51.132;7.178;2023-04-26T04:13:43;98815.03;;;19.30;32.22
62164;BME280;48149;51.132;7.178;2023-04-26T04:16:08;98820.09;;;19.37;31.91
62164;BME280;48149;51.132;7.178;2023-04-26T04:18:34;98822.72;;;19.06;32.30
62164;BME280;48149;51.132;7.178;2023-04-26T04:20:59;98816.31;;;19.07;32.10
62164;BME280;48149;51.132;7.178;2023-04-26T04:23:25;98814.72;;;19.01;32.36
62164;BME280;48149;51.132;7.178;2023-04-26T04:25:51;98828.72;;;18.77;32.17
62164;BME280;48149;51.132;7.178;2023-04-26T04:28:16;98826.34;;;18.80;32.64
62164;BME280;48149;51.132;7.178;2023-04-26T04:30:42;98824.31;;;19.17;32.04
62164;BME280;48149;51.132;7.178;2023-04-26T04:33:08;98834.13;;;19.27;32.06
62164;BME280;48149;51.132;7.178;2023-04-26T04:35:33;98822.44;;;19.18;32.35
62164;BME280;48149;51.132;7.178;2023-04-26T04:37:59;98827.75;;;19.08;32.23
62164;BME280;48149;51.132;7.178;2023-04-26T04:40:26;98832.06;;;19.85;31.37
62164;BME280;48149;51.132;7.178;2023-04-26T04:42:51;98835.47;;;19.95;31.33
62164;BME280;48149;51.132;7.178;2023-04-26T04:45:18;98837.63;;;19.83;31.32
62164;BME280;48149;51.132;7.178;2023-04-26T04:47:43;98844.28;;;19.50;32.00
62164;BME280;48149;51.132;7.178;2023-04-26T04:50:10;98835.50;;;19.80;31.76
62164;BME280;48149;51.132;7.178;2023-04-26T04:52:35;98835.16;;;20.22;31.39
62164;BME280;48149;51.132;7.178;2023-04-26T04:55:00;98837.03;;;20.27;31.08
62164;BME280;48149;51.132;7.178;2023-04-26T04:57:26;98840.31;;;19.53;31.43
62164;BME280;48149;51.132;7.178;2023-04-26T04:59:51;98835.44;;;20.20;31.38
62164;BME280;48149;51.132;7.178;2023-04-26T05:02:17;98841.13;;;20.73;31.14
62164;BME280;48149;51.132;7.178;2023-04-26T05:04:42;98841.44;;;20.66;31.03
62164;BME280;48149;51.132;7.178;2023-04-26T05:07:07;98851.75;;;20.83;30.76
62164;BME280;48149;51.132;7.178;2023-04-26T05:09:33;98850.78;;;20.54;31.26
62164;BME280;48149;51.132;7.178;2023-04-26T05:11:59;98853.00;;;20.91;30.62
62164;BME280;48149;51.132;7.178;2023-04-26T05:14:24;98853.34;;;20.79;30.80
62164;BME280;48149;51.132;7.178;2023-04-26T05:16:50;98859.06;;;21.11;30.63
62164;BME280;48149;51.132;7.178;2023-04-26T05:19:15;98864.88;;;21.18;30.39
62164;BME280;48149;51.132;7.178;2023-04-26T05:21:40;98859.94;;;21.41;30.29
62164;BME280;48149;51.132;7.178;2023-04-26T05:24:06;98866.91;;;21.37;30.53
62164;BME280;48149;51.132;7.178;2023-04-26T05:26:31;98872.00;;;21.67;30.48
62164;BME280;48149;51.132;7.178;2023-04-26T05:28:56;98864.16;;;20.93;30.75
62164;BME280;48149;51.132;7.178;2023-04-26T05:31:22;98868.53;;;21.27;30.43
62164;BME280;48149;51.132;7.178;2023-04-26T05:33:47;98868.13;;;21.83;29.70
62164;BME280;48149;51.132;7.178;2023-04-26T05:36:12;98872.31;;;21.94;29.62
62164;BME280;48149;51.132;7.178;2023-04-26T05:38:37;98879.94;;;21.38;30.40
62164;BME280;48149;51.132;7.178;2023-04-26T05:41:02;98873.59;;;22.25;29.01
62164;BME280;48149;51.132;7.178;2023-04-26T05:43:28;98881.16;;;21.90;29.45
62164;BME280;48149;51.132;7.178;2023-04-26T05:45:54;98880.53;;;22.03;29.64
62164;BME280;48149;51.132;7.178;2023-04-26T05:48:20;98887.09;;;22.63;28.78
62164;BME280;48149;51.132;7.178;2023-04-26T05:50:45;98882.03;;;22.61;28.95
62164;BME280;48149;51.132;7.178;2023-04-26T05:53:10;98881.66;;;21.97;29.39
62164;BME280;48149;51.132;7.178;2023-04-26T05:55:36;98886.16;;;22.96;28.73
62164;BME280;48149;51.132;7.178;2023-04-26T05:58:01;98888.00;;;23.19;27.97
62164;BME280;48149;51.132;7.178;2023-04-26T06:00:26;98884.88;;;22.70;28.42
62164;BME280;48149;51.132;7.178;2023-04-26T06:02:51;98889.28;;;22.32;28.88
62164;BME280;48149;51.132;7.178;2023-04-26T06:05:17;98890.38;;;22.31;29.14
62164;BME280;48149;51.132;7.178;2023-04-26T06:07:42;98894.25;;;21.81;29.05
62164;BME280;48149;51.132;7.178;2023-04-26T06:10:08;98898.25;;;22.41;29.12
62164;BME280;48149;51.132;7.178;2023-04-26T06:12:34;98902.81;;;23.68;28.12
62164;BME280;48149;51.132;7.178;2023-04-26T06:14:59;98903.47;;;21.60;29.32
62164;BME280;48149;51.132;7.178;2023-04-26T06:17:25;98896.78;;;21.62;30.16
62164;BME280;48149;51.132;7.178;2023-04-26T06:19:50;98912.28;;;21.99;30.20
62164;BME280;48149;51.132;7.178;2023-04-26T06:22:15;98904.75;;;21.28;30.60
62164;BME280;48149;51.132;7.178;2023-04-26T06:24:40;98906.34;;;20.70;30.93
62164;BME280;48149;51.132;7.178;2023-04-26T06:27:06;98910.19;;;22.25;30.55
62164;BME280;48149;51.132;7.178;2023-04-26T06:29:31;98910.78;;;21.78;29.63
62164;BME280;48149;51.132;7.178;2023-04-26T06:31:56;98914.13;;;22.80;29.66
62164;BME280;48149;51.132;7.178;2023-04-26T06:34:22;98919.47;;;21.16;31.36
62164;BME280;48149;51.132;7.178;2023-04-26T06:36:47;98916.78;;;22.56;30.08
62164;BME280;48149;51.132;7.178;2023-04-26T06:39:12;98924.25;;;21.63;30.70
62164;BME280;48149;51.132;7.178;2023-04-26T06:41:37;98927.78;;;21.92;30.80
62164;BME280;48149;51.132;7.178;2023-04-26T06:44:03;98921.78;;;22.63;29.60
62164;BME280;48149;51.132;7.178;2023-04-26T06:46:28;98925.56;;;22.57;29.66
62164;BME280;48149;51.132;7.178;2023-04-26T06:48:53;98918.59;;;22.61;29.20
62164;BME280;48149;51.132;7.178;2023-04-26T06:51:20;98925.72;;;22.18;30.20
62164;BME280;48149;51.132;7.178;2023-04-26T06:53:45;98930.31;;;22.07;29.51
62164;BME280;48149;51.132;7.178;2023-04-26T06:56:10;98924.94;;;22.94;29.10
62164;BME280;48149;51.132;7.178;2023-04-26T06:58:35;98925.72;;;22.18;28.99
62164;BME280;48149;51.132;7.178;2023-04-26T07:01:01;98921.56;;;22.02;30.94
62164;BME280;48149;51.132;7.178;2023-04-26T07:03:26;98916.63;;;21.85;30.82
62164;BME280;48149;51.132;7.178;2023-04-26T07:05:53;98924.66;;;21.80;30.70
62164;BME280;48149;51.132;7.178;2023-04-26T07:08:18;98921.94;;;22.95;29.59
62164;BME280;48149;51.132;7.178;2023-04-26T07:10:44;98921.06;;;23.23;28.60
62164;BME280;48149;51.132;7.178;2023-04-26T07:13:09;98914.56;;;24.18;27.84
62164;BME280;48149;51.132;7.178;2023-04-26T07:15:34;98916.13;;;23.54;28.44
62164;BME280;48149;51.132;7.178;2023-04-26T07:18:00;98926.13;;;23.25;27.61
62164;BME280;48149;51.132;7.178;2023-04-26T07:20:25;98912.63;;;21.49;29.75
62164;BME280;48149;51.132;7.178;2023-04-26T07:22:51;98923.13;;;23.50;28.83
62164;BME280;48149;51.132;7.178;2023-04-26T07:25:16;98908.66;;;24.34;27.18
62164;BME280;48149;51.132;7.178;2023-04-26T07:27:41;98921.94;;;21.85;29.50
62164;BME280;48149;51.132;7.178;2023-04-26T07:30:07;98925.00;;;21.68;30.19
62164;BME280;48149;51.132;7.178;2023-04-26T07:32:32;98931.84;;;22.95;30.24
62164;BME280;48149;51.132;7.178;2023-04-26T07:34:57;98925.41;;;23.19;28.63
62164;BME280;48149;51.132;7.178;2023-04-26T07:37:23;98925.19;;;24.82;26.82
62164;BME280;48149;51.132;7.178;2023-04-26T07:39:48;98926.00;;;24.37;27.31
62164;BME280;48149;51.132;7.178;2023-04-26T07:42:13;98917.78;;;22.60;28.95
62164;BME280;48149;51.132;7.178;2023-04-26T07:44:39;98911.41;;;23.46;28.64
62164;BME280;48149;51.132;7.178;2023-04-26T07:47:04;98914.94;;;24.98;25.26
62164;BME280;48149;51.132;7.178;2023-04-26T07:49:30;98913.25;;;23.08;27.22
62164;BME280;48149;51.132;7.178;2023-04-26T07:51:55;98915.63;;;22.39;28.17
62164;BME280;48149;51.132;7.178;2023-04-26T07:54:22;98913.47;;;23.30;27.79
62164;BME280;48149;51.132;7.178;2023-04-26T07:56:47;98919.41;;;23.83;26.41
62164;BME280;48149;51.132;7.178;2023-04-26T07:59:12;98916.56;;;24.26;26.12
62164;BME280;48149;51.132;7.178;2023-04-26T08:01:37;98924.16;;;24.78;25.79
62164;BME280;48149;51.132;7.178;2023-04-26T08:04:03;98919.06;;;23.53;25.73
62164;BME280;48149;51.132;7.178;2023-04-26T08:06:28;98923.78;;;24.85;24.12
62164;BME280;48149;51.132;7.178;2023-04-26T08:08:54;98926.47;;;24.85;25.73
62164;BME280;48149;51.132;7.178;2023-04-26T08:11:19;98923.22;;;26.18;23.87
62164;BME280;48149;51.132;7.178;2023-04-26T08:13:44;98922.41;;;26.17;23.66
62164;BME280;48149;51.132;7.178;2023-04-26T08:16:10;98918.38;;;25.26;25.24
62164;BME280;48149;51.132;7.178;2023-04-26T08:18:35;98918.97;;;26.56;23.38
62164;BME280;48149;51.132;7.178;2023-04-26T08:21:01;98917.19;;;25.18;24.53
62164;BME280;48149;51.132;7.178;2023-04-26T08:23:26;98914.53;;;24.04;26.96
62164;BME280;48149;51.132;7.178;2023-04-26T08:25:52;98917.06;;;23.96;25.91
62164;BME280;48149;51.132;7.178;2023-04-26T08:28:17;98922.75;;;24.81;25.34
62164;BME280;48149;51.132;7.178;2023-04-26T08:30:42;98916.91;;;25.06;25.14
62164;BME280;48149;51.132;7.178;2023-04-26T08:33:08;98920.56;;;25.82;24.48
62164;BME280;48149;51.132;7.178;2023-04-26T08:35:33;98919.03;;;23.90;24.38
62164;BME280;48149;51.132;7.178;2023-04-26T08:37:58;98914.16;;;24.11;26.28
62164;BME280;48149;51.132;7.178;2023-04-26T08:40:24;98921.63;;;23.95;27.19
62164;BME280;48149;51.132;7.178;2023-04-26T08:42:49;98929.56;;;25.99;24.81
62164;BME280;48149;51.132;7.178;2023-04-26T08:45:16;98915.81;;;25.79;24.30
62164;BME280;48149;51.132;7.178;2023-04-26T08:47:42;98913.91;;;26.55;23.49
62164;BME280;48149;51.132;7.178;2023-04-26T08:50:10;98923.50;;;24.13;24.89
62164;BME280;48149;51.132;7.178;2023-04-26T08:52:36;98916.59;;;23.37;25.78
62164;BME280;48149;51.132;7.178;2023-04-26T08:55:02;98915.75;;;26.37;23.75
62164;BME280;48149;51.132;7.178;2023-04-26T08:57:29;98930.72;;;24.13;23.99
62164;BME280;48149;51.132;7.178;2023-04-26T08:59:55;98926.56;;;23.88;23.84
62164;BME280;48149;51.132;7.178;2023-04-26T09:02:22;98922.56;;;23.11;25.57
62164;BME280;48149;51.132;7.178;2023-04-26T09:04:48;98916.53;;;26.37;23.20
62164;BME280;48149;51.132;7.178;2023-04-26T09:07:16;98913.88;;;25.35;22.87
62164;BME280;48149;51.132;7.178;2023-04-26T09:09:43;98919.78;;;24.55;22.10
62164;BME280;48149;51.132;7.178;2023-04-26T09:12:11;98923.19;;;23.45;24.23
62164;BME280;48149;51.132;7.178;2023-04-26T09:14:37;98919.09;;;24.77;24.33
62164;BME280;48149;51.132;7.178;2023-04-26T09:17:02;98917.81;;;25.02;24.49
62164;BME280;48149;51.132;7.178;2023-04-26T09:19:37;98928.50;;;25.15;24.30
62164;BME280;48149;51.132;7.178;2023-04-26T09:22:03;98918.41;;;24.12;24.27
62164;BME280;48149;51.132;7.178;2023-04-26T09:24:38;98918.69;;;25.24;22.25
62164;BME280;48149;51.132;7.178;2023-04-26T09:27:10;98925.53;;;23.84;23.31
62164;BME280;48149;51.132;7.178;2023-04-26T09:29:36;98929.25;;;25.43;23.65
62164;BME280;48149;51.132;7.178;2023-04-26T09:32:01;98922.81;;;24.21;24.24
62164;BME280;48149;51.132;7.178;2023-04-26T09:34:26;98921.28;;;25.02;23.66
62164;BME280;48149;51.132;7.178;2023-04-26T09:36:52;98920.41;;;25.78;23.10
62164;BME280;48149;51.132;7.178;2023-04-26T09:39:35;98928.97;;;24.35;24.94
62164;BME280;48149;51.132;7.178;2023-04-26T09:42:05;98927.41;;;24.62;24.16
62164;BME280;48149;51.132;7.178;2023-04-26T09:44:30;98921.19;;;26.23;22.72
62164;BME280;48149;51.132;7.178;2023-04-26T09:46:59;98918.25;;;23.15;24.36
62164;BME280;48149;51.132;7.178;2023-04-26T09:49:26;98919.50;;;22.99;24.45
62164;BME280;48149;51.132;7.178;2023-04-26T09:52:04;98919.91;;;23.29;24.28
62164;BME280;48149;51.132;7.178;2023-04-26T09:57:05;98906.97;;;23.36;23.02
62164;BME280;48149;51.132;7.178;2023-04-26T09:59:43;98910.16;;;25.44;22.56
62164;BME280;48149;51.132;7.178;2023-04-26T10:02:21;98902.47;;;26.80;21.73
62164;BME280;48149;51.132;7.178;2023-04-26T10:04:48;98908.31;;;27.55;21.02
62164;BME280;48149;51.132;7.178;2023-04-26T10:07:14;98906.88;;;28.47;20.37
62164;BME280;48149;51.132;7.178;2023-04-26T10:09:40;98908.09;;;31.05;18.41
62164;BME280;48149;51.132;7.178;2023-04-26T10:12:06;98901.13;;;31.44;17.34
62164;BME280;48149;51.132;7.178;2023-04-26T10:14:33;98896.06;;;29.77;18.79
62164;BME280;48149;51.132;7.178;2023-04-26T10:16:58;98889.09;;;30.08;18.45
62164;BME280;48149;51.132;7.178;2023-04-26T10:19:24;98892.94;;;27.22;19.74
62164;BME280;48149;51.132;7.178;2023-04-26T10:21:50;98892.00;;;27.69;20.61
62164;BME280;48149;51.132;7.178;2023-04-26T10:24:17;98887.88;;;29.52;19.20
62164;BME280;48149;51.132;7.178;2023-04-26T10:29:11;98888.94;;;27.02;21.60
62164;BME280;48149;51.132;7.178;2023-04-26T10:34:20;98889.41;;;25.50;21.93
62164;BME280;48149;51.132;7.178;2023-04-26T10:37:05;98882.38;;;25.40;21.96
62164;BME280;48149;51.132;7.178;2023-04-26T10:39:30;98884.69;;;24.70;23.53
62164;BME280;48149;51.132;7.178;2023-04-26T10:44:42;98878.00;;;26.11;22.89
62164;BME280;48149;51.132;7.178;2023-04-26T10:49:50;98878.19;;;25.62;21.89
62164;BME280;48149;51.132;7.178;2023-04-26T10:52:18;98886.94;;;27.42;20.68
62164;BME280;48149;51.132;7.178;2023-04-26T10:57:09;98884.25;;;25.98;22.72
62164;BME280;48149;51.132;7.178;2023-04-26T10:59:34;98883.00;;;26.74;21.43
62164;BME280;48149;51.132;7.178;2023-04-26T11:02:00;98886.78;;;24.00;23.01
62164;BME280;48149;51.132;7.178;2023-04-26T11:04:26;98879.63;;;24.69;23.57
62164;BME280;48149;51.132;7.178;2023-04-26T11:07:11;98877.88;;;25.27;22.75
62164;BME280;48149;51.132;7.178;2023-04-26T11:09:38;98885.53;;;23.79;23.53
62164;BME280;48149;51.132;7.178;2023-04-26T11:12:14;98881.25;;;26.70;22.18
62164;BME280;48149;51.132;7.178;2023-04-26T11:14:40;98877.75;;;27.51;21.70
62164;BME280;48149;51.132;7.178;2023-04-26T11:17:06;98877.94;;;26.73;21.26
62164;BME280;48149;51.132;7.178;2023-04-26T11:19:32;98876.94;;;27.94;20.26
62164;BME280;48149;51.132;7.178;2023-04-26T11:21:58;98870.00;;;27.24;20.15
62164;BME280;48149;51.132;7.178;2023-04-26T11:24:23;98871.28;;;26.53;22.11
62164;BME280;48149;51.132;7.178;2023-04-26T11:26:52;98874.66;;;25.75;22.59
62164;BME280;48149;51.132;7.178;2023-04-26T11:29:20;98863.22;;;25.69;22.61
62164;BME280;48149;51.132;7.178;2023-04-26T11:34:19;98877.63;;;27.57;20.32
62164;BME280;48149;51.132;7.178;2023-04-26T11:36:44;98866.94;;;24.88;23.26
62164;BME280;48149;51.132;7.178;2023-04-26T11:39:10;98859.84;;;26.47;22.02
62164;BME280;48149;51.132;7.178;2023-04-26T11:41:36;98864.25;;;25.82;22.79
62164;BME280;48149;51.132;7.178;2023-04-26T11:44:01;98874.28;;;27.34;21.21
62164;BME280;48149;51.132;7.178;2023-04-26T11:46:26;98861.84;;;25.00;22.51
62164;BME280;48149;51.132;7.178;2023-04-26T11:48:52;98863.41;;;25.51;22.62
62164;BME280;48149;51.132;7.178;2023-04-26T11:51:17;98857.25;;;24.05;23.69
62164;BME280;48149;51.132;7.178;2023-04-26T11:53:43;98864.53;;;25.50;21.86
62164;BME280;48149;51.132;7.178;2023-04-26T11:56:18;98858.50;;;26.67;21.61
62164;BME280;48149;51.132;7.178;2023-04-26T11:58:44;98859.25;;;27.16;21.63
62164;BME280;48149;51.132;7.178;2023-04-26T12:01:10;98858.88;;;25.37;22.56
62164;BME280;48149;51.132;7.178;2023-04-26T12:03:35;98862.13;;;27.53;19.94
62164;BME280;48149;51.132;7.178;2023-04-26T12:06:01;98861.53;;;28.12;19.69
62164;BME280;48149;51.132;7.178;2023-04-26T12:08:27;98846.22;;;29.41;19.45
62164;BME280;48149;51.132;7.178;2023-04-26T12:10:53;98855.16;;;30.68;19.33
62164;BME280;48149;51.132;7.178;2023-04-26T12:13:23;98853.72;;;34.48;17.01
62164;BME280;48149;51.132;7.178;2023-04-26T12:15:48;98871.13;;;36.73;15.34
62164;BME280;48149;51.132;7.178;2023-04-26T12:18:16;98857.88;;;35.51;15.40
62164;BME280;48149;51.132;7.178;2023-04-26T12:20:41;98867.31;;;35.23;15.52
62164;BME280;48149;51.132;7.178;2023-04-26T12:23:07;98869.91;;;32.49;16.23
62164;BME280;48149;51.132;7.178;2023-04-26T12:25:34;98873.41;;;28.57;20.03
62164;BME280;48149;51.132;7.178;2023-04-26T12:28:00;98861.81;;;29.15;18.96
62164;BME280;48149;51.132;7.178;2023-04-26T12:30:26;98873.44;;;30.02;19.22
62164;BME280;48149;51.132;7.178;2023-04-26T12:32:52;98868.06;;;32.06;17.62
62164;BME280;48149;51.132;7.178;2023-04-26T12:35:17;98869.19;;;31.78;17.49
62164;BME280;48149;51.132;7.178;2023-04-26T12:37:42;98865.44;;;34.26;15.76
62164;BME280;48149;51.132;7.178;2023-04-26T12:40:08;98861.22;;;30.29;17.69
62164;BME280;48149;51.132;7.178;2023-04-26T12:42:34;98861.41;;;32.04;17.43
62164;BME280;48149;51.132;7.178;2023-04-26T12:44:59;98858.13;;;31.83;16.72
62164;BME280;48149;51.132;7.178;2023-04-26T12:47:24;98857.75;;;28.50;18.81
62164;BME280;48149;51.132;7.178;2023-04-26T12:49:50;98877.44;;;31.81;17.40
62164;BME280;48149;51.132;7.178;2023-04-26T12:52:16;98864.72;;;35.67;14.89
62164;BME280;48149;51.132;7.178;2023-04-26T12:54:41;98862.09;;;34.85;14.96
62164;BME280;48149;51.132;7.178;2023-04-26T12:57:06;98859.28;;;34.55;15.60
62164;BME280;48149;51.132;7.178;2023-04-26T12:59:32;98861.06;;;34.67;15.56
62164;BME280;48149;51.132;7.178;2023-04-26T13:01:57;98854.22;;;34.76;15.53
62164;BME280;48149;51.132;7.178;2023-04-26T13:04:22;98859.41;;;37.45;13.89
62164;BME280;48149;51.132;7.178;2023-04-26T13:06:48;98852.53;;;34.19;15.04
62164;BME280;48149;51.132;7.178;2023-04-26T13:09:13;98853.25;;;34.65;15.39
62164;BME280;48149;51.132;7.178;2023-04-26T13:11:39;98858.97;;;33.50;15.14